createdAt,value
2017-05-11T00:00:39.832Z,999.20
2017-05-11T00:01:33.261Z,999.18
2017-05-11T00:02:27.646Z,999.14
2017-05-11T00:03:21.165Z,999.15
2017-05-11T00:04:22.131Z,999.15
2017-05-11T00:05:21.658Z,999.16
2017-05-11T00:06:16.682Z,999.09
2017-05-11T00:07:16.142Z,999.09
2017-05-11T00:08:10.034Z,999.09
2017-05-11T00:09:05.036Z,999.12
2017-05-11T00:10:04.524Z,999.08
2017-05-11T00:10:58.526Z,999.06
2017-05-11T00:11:52.456Z,999.08
2017-05-11T00:12:46.437Z,999.03
2017-05-11T00:13:40.359Z,999.03
2017-05-11T00:14:35.333Z,999.08
2017-05-11T00:15:28.812Z,999.10
2017-05-11T00:16:24.052Z,999.07
2017-05-11T00:17:23.400Z,999.04
2017-05-11T00:18:12.708Z,999.03
2017-05-11T00:19:05.740Z,999.05
2017-05-11T00:19:53.695Z,999.02
2017-05-11T00:20:48.681Z,998.98
2017-05-11T00:21:42.622Z,998.98
2017-05-11T00:22:37.152Z,998.99
2017-05-11T00:23:36.648Z,998.99
2017-05-11T00:24:30.652Z,998.98
2017-05-11T00:25:31.564Z,998.96
2017-05-11T00:26:25.085Z,998.93
2017-05-11T00:27:14.044Z,998.95
2017-05-11T00:28:02.936Z,998.94
2017-05-11T00:28:56.106Z,998.88
2017-05-11T00:29:50.061Z,998.88
2017-05-11T00:30:44.013Z,998.87
2017-05-11T00:31:44.367Z,998.87
2017-05-11T00:32:38.938Z,998.84
2017-05-11T00:33:33.460Z,998.85
2017-05-11T00:34:21.932Z,998.82
2017-05-11T00:35:16.451Z,998.83
2017-05-11T00:36:10.966Z,998.81
2017-05-11T00:36:59.535Z,998.80
2017-05-11T00:37:59.001Z,998.78
2017-05-11T00:38:54.007Z,998.79
2017-05-11T00:39:48.485Z,998.74
2017-05-11T00:40:47.987Z,998.76
2017-05-11T00:41:37.105Z,998.75
2017-05-11T00:42:31.487Z,998.73
2017-05-11T00:43:31.007Z,998.72
2017-05-11T00:44:19.975Z,998.73
2017-05-11T00:45:13.515Z,998.67
2017-05-11T00:46:13.863Z,998.65
2017-05-11T00:47:07.412Z,998.63
2017-05-11T00:47:56.374Z,998.61
2017-05-11T00:48:49.889Z,998.62
2017-05-11T00:49:43.903Z,998.61
2017-05-11T00:50:37.716Z,998.62
2017-05-11T00:51:32.907Z,998.59
2017-05-11T00:52:27.758Z,998.59
2017-05-11T00:53:20.730Z,998.60
2017-05-11T00:54:20.772Z,998.58
2017-05-11T00:55:09.752Z,998.55
2017-05-11T00:56:09.146Z,998.53
2017-05-11T00:57:09.161Z,998.52
2017-05-11T00:58:04.108Z,998.52
2017-05-11T00:58:58.606Z,998.50
2017-05-11T00:59:47.105Z,998.49
2017-05-11T01:00:46.664Z,998.48
2017-05-11T01:01:41.748Z,998.50
2017-05-11T01:02:36.169Z,998.46
2017-05-11T01:03:41.588Z,998.44
2017-05-11T01:04:29.589Z,998.40
2017-05-11T01:05:24.508Z,998.41
2017-05-11T01:06:12.672Z,998.40
2017-05-11T01:07:01.218Z,998.37
2017-05-11T01:07:48.625Z,998.37
2017-05-11T01:08:31.509Z,998.36
2017-05-11T01:09:31.011Z,998.33
2017-05-11T01:10:25.052Z,998.32
2017-05-11T01:11:19.303Z,998.30
2017-05-11T01:12:12.882Z,998.32
2017-05-11T01:13:00.824Z,998.30
2017-05-11T01:13:43.810Z,998.27
2017-05-11T01:14:32.327Z,998.26
2017-05-11T01:15:20.878Z,998.26
2017-05-11T01:16:14.360Z,998.24
2017-05-11T01:17:14.343Z,998.20
2017-05-11T01:18:09.282Z,998.20
2017-05-11T01:19:08.813Z,998.19
2017-05-11T01:20:03.731Z,998.19
2017-05-11T01:20:58.293Z,998.20
2017-05-11T01:21:47.250Z,998.19
2017-05-11T01:22:40.346Z,998.17
2017-05-11T01:23:40.254Z,998.16
2017-05-11T01:24:34.245Z,998.13
2017-05-11T01:25:23.135Z,998.14
2017-05-11T01:26:16.706Z,998.10
2017-05-11T01:27:11.684Z,998.08
2017-05-11T01:28:11.178Z,998.13
2017-05-11T01:29:00.110Z,998.10
2017-05-11T01:29:59.559Z,998.09
2017-05-11T01:30:48.607Z,998.07
2017-05-11T01:31:37.537Z,998.08
2017-05-11T01:32:30.629Z,998.06
2017-05-11T01:33:24.587Z,998.03
2017-05-11T01:34:18.540Z,998.04
2017-05-11T01:35:13.486Z,998.06
2017-05-11T01:36:13.018Z,998.03
2017-05-11T01:37:07.381Z,998.01
2017-05-11T01:37:54.983Z,998.04
2017-05-11T01:38:44.047Z,998.05
2017-05-11T01:39:32.411Z,998.01
2017-05-11T01:40:19.924Z,997.98
2017-05-11T01:41:08.891Z,997.97
2017-05-11T01:42:08.361Z,998.00
2017-05-11T01:43:08.364Z,997.96
2017-05-11T01:43:57.349Z,997.97
2017-05-11T01:44:44.812Z,997.89
2017-05-11T01:45:32.796Z,997.90
2017-05-11T01:46:26.752Z,997.89
2017-05-11T01:47:15.647Z,997.85
2017-05-11T01:48:15.250Z,997.79
2017-05-11T01:49:03.160Z,997.79
2017-05-11T01:49:57.139Z,997.76
2017-05-11T01:50:51.055Z,997.75
2017-05-11T01:51:45.237Z,997.74
2017-05-11T01:52:45.020Z,997.73
2017-05-11T01:53:39.952Z,997.72
2017-05-11T01:54:27.541Z,997.71
2017-05-11T01:55:10.425Z,997.70
2017-05-11T01:56:03.980Z,997.71
2017-05-11T01:56:58.907Z,997.71
2017-05-11T01:57:52.438Z,997.67
2017-05-11T01:58:46.327Z,997.65
2017-05-11T01:59:40.292Z,997.66
2017-05-11T02:00:35.247Z,997.66
2017-05-11T02:01:34.771Z,997.63
2017-05-11T02:02:29.007Z,997.61
2017-05-11T02:03:22.681Z,997.62
2017-05-11T02:04:17.683Z,997.59
2017-05-11T02:05:23.150Z,997.61
2017-05-11T02:06:17.131Z,997.57
2017-05-11T02:07:18.052Z,997.54
2017-05-11T02:08:17.601Z,997.55
2017-05-11T02:09:12.524Z,997.52
2017-05-11T02:10:07.064Z,997.52
2017-05-11T02:11:06.752Z,997.52
2017-05-11T02:12:07.022Z,997.46
2017-05-11T02:13:07.445Z,997.48
2017-05-11T02:14:06.950Z,997.45
2017-05-11T02:14:54.935Z,997.42
2017-05-11T02:15:43.869Z,997.41
2017-05-11T02:16:38.443Z,997.44
2017-05-11T02:17:37.917Z,997.39
2017-05-11T02:18:31.879Z,997.37
2017-05-11T02:19:25.884Z,997.36
2017-05-11T02:20:19.747Z,997.34
2017-05-11T02:21:19.747Z,997.39
2017-05-11T02:22:09.065Z,997.36
2017-05-11T02:23:02.201Z,997.33
2017-05-11T02:24:02.121Z,997.35
2017-05-11T02:24:56.115Z,997.32
2017-05-11T02:25:51.006Z,997.31
2017-05-11T02:26:45.555Z,997.30
2017-05-11T02:27:39.133Z,997.31
2017-05-11T02:28:34.006Z,997.30
2017-05-11T02:29:28.548Z,997.24
2017-05-11T02:30:22.033Z,997.24
2017-05-11T02:31:11.019Z,997.25
2017-05-11T02:32:10.478Z,997.22
2017-05-11T02:33:04.502Z,997.23
2017-05-11T02:33:53.411Z,997.23
2017-05-11T02:34:46.928Z,997.18
2017-05-11T02:35:35.970Z,997.21
2017-05-11T02:36:24.429Z,997.21
2017-05-11T02:37:18.968Z,997.19
2017-05-11T02:38:12.609Z,997.19
2017-05-11T02:39:06.442Z,997.19
2017-05-11T02:40:00.411Z,997.11
2017-05-11T02:40:49.302Z,997.14
2017-05-11T02:41:42.832Z,997.17
2017-05-11T02:42:42.824Z,997.12
2017-05-11T02:43:31.880Z,997.10
2017-05-11T02:44:31.278Z,997.05
2017-05-11T02:45:25.260Z,997.08
2017-05-11T02:46:20.211Z,997.07
2017-05-11T02:47:13.733Z,997.06
2017-05-11T02:48:02.653Z,997.04
2017-05-11T02:49:02.139Z,997.04
2017-05-11T02:49:57.144Z,997.05
2017-05-11T02:50:56.674Z,996.99
2017-05-11T02:51:56.778Z,996.98
2017-05-11T02:52:51.521Z,997.00
2017-05-11T02:53:51.079Z,997.00
2017-05-11T02:54:40.053Z,996.96
2017-05-11T02:55:27.533Z,997.02
2017-05-11T02:56:21.507Z,996.96
2017-05-11T02:57:10.441Z,996.98
2017-05-11T02:57:57.974Z,996.99
2017-05-11T02:58:57.924Z,996.99
2017-05-11T02:59:51.945Z,996.97
2017-05-11T03:00:51.846Z,997.01
2017-05-11T03:01:45.746Z,996.97
2017-05-11T03:02:45.721Z,996.98
2017-05-11T03:03:39.679Z,997.00
2017-05-11T03:04:39.616Z,996.98
2017-05-11T03:05:27.606Z,996.92
2017-05-11T03:06:21.972Z,996.93
2017-05-11T03:07:16.498Z,996.92
2017-05-11T03:08:11.029Z,996.88
2017-05-11T03:09:04.559Z,996.87
2017-05-11T03:09:53.501Z,996.87
2017-05-11T03:10:53.012Z,996.90
2017-05-11T03:11:47.952Z,996.85
2017-05-11T03:12:42.455Z,996.85
2017-05-11T03:13:36.004Z,996.80
2017-05-11T03:14:18.941Z,996.80
2017-05-11T03:15:13.437Z,996.76
2017-05-11T03:16:07.293Z,996.78
2017-05-11T03:17:06.920Z,996.71
2017-05-11T03:18:00.911Z,996.69
2017-05-11T03:19:00.838Z,996.69
2017-05-11T03:19:49.806Z,996.67
2017-05-11T03:20:38.283Z,996.67
2017-05-11T03:21:38.855Z,996.63
2017-05-11T03:22:38.328Z,996.66
2017-05-11T03:23:27.322Z,996.62
2017-05-11T03:24:21.841Z,996.62
2017-05-11T03:25:16.347Z,996.63
2017-05-11T03:26:09.834Z,996.64
2017-05-11T03:26:58.832Z,996.57
2017-05-11T03:28:04.280Z,996.62
2017-05-11T03:28:59.239Z,996.56
2017-05-11T03:29:58.743Z,996.56
2017-05-11T03:30:58.712Z,996.53
2017-05-11T03:31:47.659Z,996.52
2017-05-11T03:32:47.284Z,996.54
2017-05-11T03:33:36.174Z,996.59
2017-05-11T03:34:35.652Z,996.58
2017-05-11T03:35:29.640Z,996.55
2017-05-11T03:36:29.509Z,996.54
2017-05-11T03:37:12.638Z,996.53
2017-05-11T03:38:12.063Z,996.56
2017-05-11T03:39:06.016Z,996.53
2017-05-11T03:39:59.932Z,996.53
2017-05-11T03:40:53.902Z,996.55
2017-05-11T03:41:47.876Z,996.53
2017-05-11T03:42:35.786Z,996.53
2017-05-11T03:43:35.750Z,996.53
2017-05-11T03:44:30.727Z,996.49
2017-05-11T03:45:30.241Z,996.55
2017-05-11T03:46:30.110Z,996.47
2017-05-11T03:47:18.138Z,996.46
2017-05-11T03:48:12.064Z,996.47
2017-05-11T03:49:06.077Z,996.45
2017-05-11T03:49:59.944Z,996.44
2017-05-11T03:50:53.925Z,996.44
2017-05-11T03:51:41.920Z,996.46
2017-05-11T03:52:29.816Z,996.47
2017-05-11T03:53:18.802Z,996.44
2017-05-11T03:54:07.370Z,996.43
2017-05-11T03:54:55.846Z,996.38
2017-05-11T03:55:44.369Z,996.40
2017-05-11T03:56:37.901Z,996.38
2017-05-11T03:57:31.814Z,996.43
2017-05-11T03:58:26.807Z,996.41
2017-05-11T03:59:26.334Z,996.38
2017-05-11T04:00:15.245Z,996.34
2017-05-11T04:01:09.768Z,996.34
2017-05-11T04:02:03.336Z,996.33
2017-05-11T04:02:58.264Z,996.33
2017-05-11T04:03:51.764Z,996.34
2017-05-11T04:04:34.806Z,996.32
2017-05-11T04:05:23.237Z,996.33
2017-05-11T04:06:23.169Z,996.31
2017-05-11T04:07:11.745Z,996.33
2017-05-11T04:08:05.239Z,996.28
2017-05-11T04:08:59.208Z,996.31
2017-05-11T04:09:59.162Z,996.28
2017-05-11T04:10:54.063Z,996.26
2017-05-11T04:11:53.568Z,996.28
2017-05-11T04:12:48.540Z,996.27
2017-05-11T04:13:48.073Z,996.30
2017-05-11T04:14:37.025Z,996.31
2017-05-11T04:15:31.536Z,996.27
2017-05-11T04:16:32.049Z,996.23
2017-05-11T04:17:31.608Z,996.24
2017-05-11T04:18:26.530Z,996.24
2017-05-11T04:19:21.033Z,996.19
2017-05-11T04:20:14.545Z,996.17
2017-05-11T04:21:08.640Z,996.17
2017-05-11T04:22:02.458Z,996.16
2017-05-11T04:23:02.428Z,996.14
2017-05-11T04:23:51.370Z,996.15
2017-05-11T04:24:50.829Z,996.16
2017-05-11T04:25:44.843Z,996.16
2017-05-11T04:26:39.079Z,996.13
2017-05-11T04:27:32.722Z,996.10
2017-05-11T04:28:26.695Z,996.13
2017-05-11T04:29:20.603Z,996.11
2017-05-11T04:30:16.042Z,996.09
2017-05-11T04:31:15.078Z,996.06
2017-05-11T04:32:09.049Z,996.12
2017-05-11T04:33:04.024Z,996.07
2017-05-11T04:33:57.524Z,996.11
2017-05-11T04:34:46.471Z,996.06
2017-05-11T04:35:41.020Z,996.11
2017-05-11T04:36:34.622Z,996.10
2017-05-11T04:37:34.513Z,996.08
2017-05-11T04:38:23.414Z,996.12
2017-05-11T04:39:17.078Z,996.05
2017-05-11T04:40:10.933Z,996.09
2017-05-11T04:41:04.822Z,996.09
2017-05-11T04:41:58.797Z,996.06
2017-05-11T04:42:47.765Z,996.04
2017-05-11T04:43:42.227Z,995.99
2017-05-11T04:44:41.810Z,996.01
2017-05-11T04:45:30.755Z,995.99
2017-05-11T04:46:36.265Z,996.00
2017-05-11T04:47:30.225Z,995.98
2017-05-11T04:48:30.159Z,995.97
2017-05-11T04:49:18.119Z,996.00
2017-05-11T04:50:18.105Z,995.98
2017-05-11T04:51:12.032Z,995.94
2017-05-11T04:52:12.954Z,995.90
2017-05-11T04:53:12.513Z,995.90
2017-05-11T04:54:06.496Z,995.93
2017-05-11T04:55:00.420Z,995.93
2017-05-11T04:55:54.410Z,995.93
2017-05-11T04:56:48.326Z,995.92
2017-05-11T04:57:43.306Z,995.88
2017-05-11T04:58:42.767Z,995.92
2017-05-11T04:59:36.745Z,995.92
2017-05-11T05:00:36.651Z,995.87
2017-05-11T05:01:31.624Z,995.86
2017-05-11T05:02:31.136Z,995.88
2017-05-11T05:03:25.150Z,995.88
2017-05-11T05:04:25.026Z,995.90
2017-05-11T05:05:19.034Z,995.90
2017-05-11T05:06:13.009Z,995.85
2017-05-11T05:07:06.946Z,995.89
2017-05-11T05:08:01.275Z,995.85
2017-05-11T05:09:00.884Z,995.81
2017-05-11T05:09:54.822Z,995.84
2017-05-11T05:10:49.970Z,995.81
2017-05-11T05:11:55.293Z,995.81
2017-05-11T05:12:49.241Z,995.81
2017-05-11T05:13:38.227Z,995.82
2017-05-11T05:14:31.735Z,995.82
2017-05-11T05:15:31.639Z,995.78
2017-05-11T05:16:26.149Z,995.77
2017-05-11T05:17:25.744Z,995.72
2017-05-11T05:18:20.542Z,995.79
2017-05-11T05:19:15.070Z,995.73
2017-05-11T05:20:14.627Z,995.77
2017-05-11T05:21:08.552Z,995.74
2017-05-11T05:22:08.523Z,995.74
2017-05-11T05:23:03.515Z,995.73
2017-05-11T05:23:57.058Z,995.69
2017-05-11T05:24:50.974Z,995.71
2017-05-11T05:25:45.070Z,995.73
2017-05-11T05:26:39.888Z,995.72
2017-05-11T05:27:34.542Z,995.72
2017-05-11T05:28:27.949Z,995.72
2017-05-11T05:29:27.865Z,995.75
2017-05-11T05:30:16.385Z,995.67
2017-05-11T05:31:09.908Z,995.69
2017-05-11T05:32:09.760Z,995.67
2017-05-11T05:33:03.749Z,995.66
2017-05-11T05:34:04.681Z,995.65
2017-05-11T05:34:58.240Z,995.67
2017-05-11T05:35:47.170Z,995.65
2017-05-11T05:36:46.641Z,995.60
2017-05-11T05:37:40.642Z,995.63
2017-05-11T05:38:35.625Z,995.68
2017-05-11T05:39:30.144Z,995.68
2017-05-11T05:40:24.697Z,995.70
2017-05-11T05:41:19.170Z,995.66
2017-05-11T05:42:19.051Z,995.69
2017-05-11T05:43:12.836Z,995.71
2017-05-11T05:44:13.661Z,995.70
2017-05-11T05:45:08.196Z,995.67
2017-05-11T05:46:01.725Z,995.63
2017-05-11T05:46:55.654Z,995.62
2017-05-11T05:47:49.612Z,995.64
2017-05-11T05:48:37.579Z,995.67
2017-05-11T05:49:31.550Z,995.57
2017-05-11T05:50:31.505Z,995.57
2017-05-11T05:51:20.464Z,995.62
2017-05-11T05:52:20.040Z,995.62
2017-05-11T05:53:19.975Z,995.62
2017-05-11T05:54:15.215Z,995.59
2017-05-11T05:55:09.441Z,995.62
2017-05-11T05:56:03.975Z,995.57
2017-05-11T05:56:57.536Z,995.54
2017-05-11T05:57:45.545Z,995.57
2017-05-11T05:58:40.398Z,995.56
2017-05-11T05:59:35.271Z,995.55
2017-05-11T06:00:23.630Z,995.52
2017-05-11T06:01:17.094Z,995.56
2017-05-11T06:02:18.455Z,995.56
2017-05-11T06:03:11.520Z,995.63
2017-05-11T06:04:06.484Z,995.60
2017-05-11T06:05:00.216Z,995.61
2017-05-11T06:05:54.991Z,995.64
2017-05-11T06:06:54.529Z,995.59
2017-05-11T06:07:43.464Z,995.61
2017-05-11T06:08:42.978Z,995.56
2017-05-11T06:09:36.916Z,995.58
2017-05-11T06:10:30.933Z,995.58
2017-05-11T06:11:20.136Z,995.58
2017-05-11T06:12:19.466Z,995.62
2017-05-11T06:13:08.352Z,995.58
2017-05-11T06:14:01.883Z,995.44
2017-05-11T06:15:01.854Z,995.49
2017-05-11T06:15:56.853Z,995.49
2017-05-11T06:16:51.899Z,995.51
2017-05-11T06:17:45.830Z,995.45
2017-05-11T06:18:45.432Z,995.46
2017-05-11T06:19:40.358Z,995.40
2017-05-11T06:20:45.930Z,995.40
2017-05-11T06:21:40.902Z,995.36
2017-05-11T06:22:34.419Z,995.44
2017-05-11T06:23:34.410Z,995.44
2017-05-11T06:24:23.436Z,995.44
2017-05-11T06:25:17.862Z,995.45
2017-05-11T06:26:17.858Z,995.46
2017-05-11T06:27:11.338Z,995.44
2017-05-11T06:28:05.331Z,995.46
2017-05-11T06:28:59.232Z,995.45
2017-05-11T06:29:54.238Z,995.44
2017-05-11T06:30:48.789Z,995.46
2017-05-11T06:31:43.293Z,995.45
2017-05-11T06:32:37.820Z,995.46
2017-05-11T06:33:37.553Z,995.44
2017-05-11T06:34:32.341Z,995.42
2017-05-11T06:35:32.259Z,995.45
2017-05-11T06:36:32.280Z,995.49
2017-05-11T06:37:25.781Z,995.51
2017-05-11T06:38:25.966Z,995.52
2017-05-11T06:39:21.014Z,995.47
2017-05-11T06:40:14.243Z,995.50
2017-05-11T06:41:03.218Z,995.49
2017-05-11T06:41:57.027Z,995.51
2017-05-11T06:42:50.962Z,995.46
2017-05-11T06:43:44.804Z,995.51
2017-05-11T06:44:27.916Z,995.49
2017-05-11T06:45:22.141Z,995.52
2017-05-11T06:46:28.198Z,995.53
2017-05-11T06:47:16.858Z,995.55
2017-05-11T06:48:10.194Z,995.56
2017-05-11T06:49:04.605Z,995.56
2017-05-11T06:49:58.247Z,995.56
2017-05-11T06:50:58.064Z,995.54
2017-05-11T06:51:52.507Z,995.54
2017-05-11T06:52:41.058Z,995.52
2017-05-11T06:53:34.700Z,995.53
2017-05-11T06:54:23.564Z,995.54
2017-05-11T06:55:23.573Z,995.53
2017-05-11T06:56:23.073Z,995.50
2017-05-11T06:57:17.433Z,995.53
2017-05-11T06:58:12.327Z,995.48
2017-05-11T06:59:11.698Z,995.50
2017-05-11T06:59:54.811Z,995.45
2017-05-11T07:00:48.060Z,995.42
2017-05-11T07:01:43.011Z,995.39
2017-05-11T07:02:37.664Z,995.43
2017-05-11T07:03:37.074Z,995.39
2017-05-11T07:04:26.443Z,995.38
2017-05-11T07:05:19.542Z,995.35
2017-05-11T07:06:09.240Z,995.34
2017-05-11T07:07:02.276Z,995.33
2017-05-11T07:07:57.477Z,995.30
2017-05-11T07:08:50.954Z,995.28
2017-05-11T07:09:44.672Z,995.30
2017-05-11T07:10:39.634Z,995.36
2017-05-11T07:11:34.891Z,995.37
2017-05-11T07:12:27.611Z,995.36
2017-05-11T07:13:22.576Z,995.40
2017-05-11T07:14:17.599Z,995.41
2017-05-11T07:15:10.896Z,995.40
2017-05-11T07:16:04.828Z,995.38
2017-05-11T07:17:00.306Z,995.35
2017-05-11T07:18:05.114Z,995.30
2017-05-11T07:18:53.491Z,995.35
2017-05-11T07:19:41.037Z,995.34
2017-05-11T07:20:30.430Z,995.39
2017-05-11T07:21:24.671Z,995.30
2017-05-11T07:22:19.882Z,995.34
2017-05-11T07:23:13.797Z,995.33
2017-05-11T07:24:07.150Z,995.31
2017-05-11T07:25:01.436Z,995.28
2017-05-11T07:25:49.099Z,995.26
2017-05-11T07:26:43.521Z,995.29
2017-05-11T07:27:31.076Z,995.28
2017-05-11T07:28:25.430Z,995.24
2017-05-11T07:29:25.001Z,995.27
2017-05-11T07:30:19.555Z,995.29
2017-05-11T07:31:19.308Z,995.26
2017-05-11T07:32:13.241Z,995.25
2017-05-11T07:33:07.065Z,995.26
2017-05-11T07:33:56.173Z,995.28
2017-05-11T07:34:55.423Z,995.29
2017-05-11T07:35:49.359Z,995.24
2017-05-11T07:36:37.434Z,995.21
2017-05-11T07:37:31.303Z,995.15
2017-05-11T07:38:25.434Z,995.17
2017-05-11T07:39:20.705Z,995.13
2017-05-11T07:40:20.034Z,995.12
2017-05-11T07:41:14.058Z,995.08
2017-05-11T07:42:09.029Z,995.07
2017-05-11T07:43:02.652Z,995.07
2017-05-11T07:44:03.290Z,995.04
2017-05-11T07:45:03.037Z,995.09
2017-05-11T07:45:56.750Z,995.15
2017-05-11T07:46:51.061Z,995.12
2017-05-11T07:47:50.832Z,995.12
2017-05-11T07:48:45.828Z,995.15
2017-05-11T07:49:39.588Z,995.07
2017-05-11T07:50:33.478Z,995.07
2017-05-11T07:51:27.447Z,995.04
2017-05-11T07:52:27.482Z,995.13
2017-05-11T07:53:22.061Z,995.03
2017-05-11T07:54:21.953Z,995.10
2017-05-11T07:55:16.148Z,995.03
2017-05-11T07:56:09.576Z,995.04
2017-05-11T07:57:03.591Z,995.03
2017-05-11T07:57:52.457Z,995.00
2017-05-11T07:58:52.405Z,994.99
2017-05-11T07:59:39.998Z,995.02
2017-05-11T08:00:29.258Z,994.98
2017-05-11T08:01:23.597Z,995.06
2017-05-11T08:02:23.417Z,994.97
2017-05-11T08:03:11.036Z,994.98
2017-05-11T08:04:05.334Z,994.91
2017-05-11T08:04:54.385Z,994.89
2017-05-11T08:05:48.940Z,994.86
2017-05-11T08:06:48.365Z,994.79
2017-05-11T08:07:42.523Z,994.83
2017-05-11T08:08:36.313Z,994.85
2017-05-11T08:09:30.265Z,994.80
2017-05-11T08:10:25.315Z,994.78
2017-05-11T08:11:19.988Z,994.79
2017-05-11T08:12:14.401Z,994.75
2017-05-11T08:13:08.982Z,994.79
2017-05-11T08:14:03.775Z,994.80
2017-05-11T08:14:56.978Z,994.75
2017-05-11T08:15:50.933Z,994.67
2017-05-11T08:16:45.133Z,994.72
2017-05-11T08:17:38.519Z,994.70
2017-05-11T08:18:27.622Z,994.73
2017-05-11T08:19:22.299Z,994.76
2017-05-11T08:20:15.778Z,994.78
2017-05-11T08:21:10.714Z,994.77
2017-05-11T08:22:05.411Z,994.80
2017-05-11T08:22:59.824Z,994.82
2017-05-11T08:23:54.557Z,994.82
2017-05-11T08:24:48.198Z,994.83
2017-05-11T08:25:42.032Z,994.77
2017-05-11T08:26:36.086Z,994.80
2017-05-11T08:27:30.199Z,994.76
2017-05-11T08:28:25.003Z,994.71
2017-05-11T08:29:18.698Z,994.76
2017-05-11T08:30:18.541Z,994.72
2017-05-11T08:31:13.478Z,994.67
2017-05-11T08:32:13.058Z,994.68
2017-05-11T08:33:07.042Z,994.75
2017-05-11T08:34:01.041Z,994.70
2017-05-11T08:34:54.952Z,994.70
2017-05-11T08:35:42.930Z,994.70
2017-05-11T08:36:36.950Z,994.67
2017-05-11T08:37:24.877Z,994.67
2017-05-11T08:38:24.865Z,994.63
2017-05-11T08:39:19.845Z,994.65
2017-05-11T08:40:07.282Z,994.68
2017-05-11T08:41:07.297Z,994.66
2017-05-11T08:42:01.312Z,994.65
2017-05-11T08:42:55.309Z,994.65
2017-05-11T08:43:39.402Z,994.64
2017-05-11T08:44:37.792Z,994.63
2017-05-11T08:45:26.825Z,994.66
2017-05-11T08:46:21.425Z,994.54
2017-05-11T08:47:09.639Z,994.55
2017-05-11T08:48:04.463Z,994.63
2017-05-11T08:49:04.242Z,994.59
2017-05-11T08:49:51.637Z,994.64
2017-05-11T08:50:45.509Z,994.66
2017-05-11T08:51:35.164Z,994.60
2017-05-11T08:52:29.446Z,994.59
2017-05-11T08:53:28.984Z,994.63
2017-05-11T08:54:29.265Z,994.58
2017-05-11T08:55:17.970Z,994.60
2017-05-11T08:56:12.487Z,994.58
2017-05-11T08:57:06.015Z,994.59
2017-05-11T08:57:59.974Z,994.62
2017-05-11T08:58:54.015Z,994.56
2017-05-11T08:59:49.320Z,994.53
2017-05-11T09:00:43.506Z,994.57
2017-05-11T09:01:43.050Z,994.54
2017-05-11T09:02:31.582Z,994.54
2017-05-11T09:03:25.520Z,994.50
2017-05-11T09:04:25.552Z,994.50
2017-05-11T09:05:25.595Z,994.45
2017-05-11T09:06:20.524Z,994.42
2017-05-11T09:07:14.051Z,994.42
2017-05-11T09:08:08.981Z,994.40
2017-05-11T09:09:08.544Z,994.36
2017-05-11T09:10:02.566Z,994.37
2017-05-11T09:10:50.555Z,994.39
2017-05-11T09:11:44.474Z,994.41
2017-05-11T09:12:39.504Z,994.43
2017-05-11T09:13:39.019Z,994.40
2017-05-11T09:14:34.018Z,994.39
2017-05-11T09:15:39.559Z,994.38
2017-05-11T09:16:34.017Z,994.39
2017-05-11T09:17:33.506Z,994.35
2017-05-11T09:18:22.521Z,994.36
2017-05-11T09:19:16.076Z,994.31
2017-05-11T09:20:16.014Z,994.34
2017-05-11T09:21:04.005Z,994.33
2017-05-11T09:21:58.245Z,994.30
2017-05-11T09:22:45.951Z,994.23
2017-05-11T09:23:39.917Z,994.29
2017-05-11T09:24:33.894Z,994.22
2017-05-11T09:25:28.834Z,994.29
2017-05-11T09:26:22.383Z,994.28
2017-05-11T09:27:16.704Z,994.31
2017-05-11T09:28:16.376Z,994.22
2017-05-11T09:29:10.369Z,994.26
2017-05-11T09:30:05.329Z,994.26
2017-05-11T09:30:58.879Z,994.22
2017-05-11T09:31:47.864Z,994.23
2017-05-11T09:32:47.383Z,994.26
2017-05-11T09:33:42.382Z,994.29
2017-05-11T09:34:35.907Z,994.32
2017-05-11T09:35:30.954Z,994.25
2017-05-11T09:36:24.458Z,994.26
2017-05-11T09:37:24.448Z,994.27
2017-05-11T09:38:13.504Z,994.28
2017-05-11T09:39:07.969Z,994.29
2017-05-11T09:40:07.522Z,994.30
2017-05-11T09:41:01.494Z,994.29
2017-05-11T09:41:56.433Z,994.25
2017-05-11T09:42:50.035Z,994.18
2017-05-11T09:43:45.307Z,994.24
2017-05-11T09:44:39.541Z,994.15
2017-05-11T09:45:27.109Z,994.15
2017-05-11T09:46:27.106Z,994.14
2017-05-11T09:47:21.098Z,994.17
2017-05-11T09:48:15.069Z,994.26
2017-05-11T09:49:10.348Z,994.15
2017-05-11T09:50:03.600Z,994.15
2017-05-11T09:50:51.567Z,994.17
2017-05-11T09:51:46.532Z,994.09
2017-05-11T09:52:46.061Z,994.10
2017-05-11T09:53:35.067Z,994.15
2017-05-11T09:54:34.612Z,994.13
2017-05-11T09:55:23.542Z,994.08
2017-05-11T09:56:18.145Z,994.06
2017-05-11T09:57:17.684Z,994.09
2017-05-11T09:58:11.664Z,994.06
2017-05-11T09:59:05.647Z,994.09
2017-05-11T09:59:53.643Z,994.08
2017-05-11T10:00:53.607Z,994.05
2017-05-11T10:01:41.601Z,994.08
2017-05-11T10:02:36.541Z,994.10
2017-05-11T10:03:30.042Z,994.06
2017-05-11T10:04:30.066Z,994.07
2017-05-11T10:05:19.112Z,994.04
2017-05-11T10:06:12.581Z,994.01
2017-05-11T10:07:06.543Z,994.01
2017-05-11T10:07:55.557Z,994.07
2017-05-11T10:08:55.117Z,994.04
2017-05-11T10:09:43.122Z,994.02
2017-05-11T10:10:38.049Z,993.95
2017-05-11T10:11:37.771Z,993.99
2017-05-11T10:12:32.601Z,994.00
2017-05-11T10:13:27.183Z,993.95
2017-05-11T10:14:20.819Z,993.99
2017-05-11T10:15:15.654Z,993.98
2017-05-11T10:16:09.571Z,993.91
2017-05-11T10:16:57.218Z,993.89
2017-05-11T10:17:46.206Z,993.89
2017-05-11T10:18:39.757Z,993.86
2017-05-11T10:19:39.719Z,993.83
2017-05-11T10:20:34.695Z,993.87
2017-05-11T10:21:29.874Z,993.87
2017-05-11T10:22:28.785Z,993.88
2017-05-11T10:23:17.819Z,993.81
2017-05-11T10:24:17.400Z,993.86
2017-05-11T10:25:11.351Z,993.84
2017-05-11T10:26:12.310Z,993.80
2017-05-11T10:27:06.144Z,993.80
2017-05-11T10:27:53.778Z,993.81
2017-05-11T10:28:41.758Z,993.73
2017-05-11T10:29:42.773Z,993.72
2017-05-11T10:30:31.333Z,993.75
2017-05-11T10:31:24.831Z,993.70
2017-05-11T10:32:25.865Z,993.76
2017-05-11T10:33:19.345Z,993.67
2017-05-11T10:34:13.377Z,993.70
2017-05-11T10:35:01.343Z,993.66
2017-05-11T10:36:01.319Z,993.65
2017-05-11T10:36:56.375Z,993.65
2017-05-11T10:37:55.912Z,993.64
2017-05-11T10:38:49.850Z,993.65
2017-05-11T10:39:38.867Z,993.68
2017-05-11T10:40:39.351Z,993.68
2017-05-11T10:41:32.944Z,993.70
2017-05-11T10:42:27.857Z,993.70
2017-05-11T10:43:21.391Z,993.67
2017-05-11T10:44:15.447Z,993.74
2017-05-11T10:45:10.317Z,993.66
2017-05-11T10:46:04.923Z,993.65
2017-05-11T10:46:58.418Z,993.63
2017-05-11T10:47:58.425Z,993.60
2017-05-11T10:48:47.420Z,993.61
2017-05-11T10:49:46.968Z,993.60
2017-05-11T10:50:40.938Z,993.55
2017-05-11T10:51:23.942Z,993.43
2017-05-11T10:52:18.480Z,993.41
2017-05-11T10:53:13.034Z,993.36
2017-05-11T10:54:08.051Z,993.37
2017-05-11T10:54:56.090Z,993.39
2017-05-11T10:55:55.678Z,993.35
2017-05-11T10:56:43.627Z,993.41
2017-05-11T10:57:31.802Z,993.43
2017-05-11T10:58:25.634Z,993.39
2017-05-11T10:59:20.835Z,993.44
2017-05-11T11:00:09.180Z,993.38
2017-05-11T11:01:02.662Z,993.39
2017-05-11T11:02:03.670Z,993.38
2017-05-11T11:02:51.258Z,993.29
2017-05-11T11:03:45.231Z,993.29
2017-05-11T11:04:39.526Z,993.29
2017-05-11T11:05:34.168Z,993.31
2017-05-11T11:06:28.661Z,993.34
2017-05-11T11:07:17.271Z,993.34
2017-05-11T11:08:11.843Z,993.31
2017-05-11T11:09:06.363Z,993.33
2017-05-11T11:10:00.975Z,993.24
2017-05-11T11:10:55.475Z,993.19
2017-05-11T11:11:49.992Z,993.23
2017-05-11T11:12:44.519Z,993.19
2017-05-11T11:13:44.066Z,993.19
2017-05-11T11:14:38.092Z,993.18
2017-05-11T11:15:31.986Z,993.22
2017-05-11T11:16:21.029Z,993.20
2017-05-11T11:17:15.536Z,993.22
2017-05-11T11:18:04.079Z,993.14